Time;durP1;ratioP1;P1;durP2;ratioP2;P2;SDS_P1;SDS_P2;PMS_P1;PMS_P2;Temp;Humidity;BMP_temperature;BMP_pressure;BME280_temperature;BME280_humidity;BME280_pressure;Samples;Min_cycle;Max_cycle;Signal;HPM_P1;HPM_P2
2023/06/10 00:01:49;;;;;;;;;;;;;;;23.31;42.28;100305.19;4950650;28;6803;-75
2023/06/10 00:04:16;;;;;;;;;;;;;;;23.28;42.09;100305.22;4926683;28;6796;-75
2023/06/10 00:06:48;;;;;;;;;;;;;;;23.25;42.35;100315.66;4934002;28;7445;-75
2023/06/10 00:09:14;;;;;;;;;;;;;;;23.23;42.38;100313.06;4939279;28;6804;-75
2023/06/10 00:11:40;;;;;;;;;;;;;;;23.24;42.64;100308.69;4934216;28;7045;-75
2023/06/10 00:14:06;;;;;;;;;;;;;;;23.21;42.81;100309.56;4948243;28;7140;-74
2023/06/10 00:16:33;;;;;;;;;;;;;;;23.20;42.71;100315.69;4936486;28;6856;-75
2023/06/10 00:19:04;;;;;;;;;;;;;;;23.15;42.89;100315.72;4950593;28;7036;-74
2023/06/10 00:21:39;;;;;;;;;;;;;;;23.08;42.20;100308.81;4950957;28;7220;-74
2023/06/10 00:24:11;;;;;;;;;;;;;;;23.03;42.94;100313.16;4921113;28;8171;-74
2023/06/10 00:26:39;;;;;;;;;;;;;;;22.94;42.65;100311.47;4949123;28;6955;-75
2023/06/10 00:29:05;;;;;;;;;;;;;;;22.87;43.28;100312.38;4939544;28;6989;-75
2023/06/10 00:31:31;;;;;;;;;;;;;;;22.78;43.39;100318.50;4934470;28;7091;-74
2023/06/10 00:33:56;;;;;;;;;;;;;;;22.67;43.80;100312.44;4940790;28;6964;-74
2023/06/10 00:36:22;;;;;;;;;;;;;;;22.61;43.64;100315.94;4946911;28;6863;-75
2023/06/10 00:38:48;;;;;;;;;;;;;;;22.54;43.89;100317.72;4930242;28;6979;-74
2023/06/10 00:41:14;;;;;;;;;;;;;;;22.47;44.32;100316.84;4948829;28;6927;-74
2023/06/10 00:43:39;;;;;;;;;;;;;;;22.42;44.27;100330.78;4917976;28;6986;-75
2023/06/10 00:46:05;;;;;;;;;;;;;;;22.37;44.42;100320.34;4931835;28;7230;-75
2023/06/10 00:48:32;;;;;;;;;;;;;;;22.36;44.74;100320.34;4946111;28;7012;-74
2023/06/10 00:51:00;;;;;;;;;;;;;;;22.34;44.53;100316.00;4950001;28;7479;-74
2023/06/10 00:53:27;;;;;;;;;;;;;;;22.37;44.79;100324.69;4938914;28;6796;-74
2023/06/10 00:55:53;;;;;;;;;;;;;;;22.37;44.88;100319.47;4951395;28;6800;-74
2023/06/10 00:58:19;;;;;;;;;;;;;;;22.37;44.90;100322.06;4958769;28;7731;-75
2023/06/10 01:00:47;;;;;;;;;;;;;;;22.36;44.97;100323.81;4951427;28;6967;-74
2023/06/10 01:03:13;;;;;;;;;;;;;;;22.34;45.06;100322.94;4936607;28;6792;-74
2023/06/10 01:05:41;;;;;;;;;;;;;;;22.31;45.06;100325.56;4948898;28;6875;-75
2023/06/10 01:08:28;;;;;;;;;;;;;;;22.30;45.35;100322.06;4954997;28;6808;-74
2023/06/10 01:11:00;;;;;;;;;;;;;;;22.29;45.06;100316.88;4952202;28;7227;-75
2023/06/10 01:13:31;;;;;;;;;;;;;;;22.28;45.17;100315.13;4955687;28;7265;-75
2023/06/10 01:15:58;;;;;;;;;;;;;;;22.26;45.22;100312.50;4957445;28;7957;-75
2023/06/10 01:18:32;;;;;;;;;;;;;;;22.27;45.44;100322.09;4948762;28;6804;-75
2023/06/10 01:20:58;;;;;;;;;;;;;;;22.26;45.50;100311.63;4948470;28;7019;-74
2023/06/10 01:23:24;;;;;;;;;;;;;;;22.25;45.51;100315.13;4951061;28;6776;-74
2023/06/10 01:26:10;;;;;;;;;;;;;;;22.22;45.27;100312.53;4950743;28;6943;-75
2023/06/10 01:28:58;;;;;;;;;;;;;;;22.18;45.48;100316.88;4935332;28;7043;-75
2023/06/10 01:31:40;;;;;;;;;;;;;;;22.13;45.63;100311.66;4935573;28;7237;-74
2023/06/10 01:34:13;;;;;;;;;;;;;;;22.11;45.69;100320.34;4950729;28;6829;-75
2023/06/10 01:36:43;;;;;;;;;;;;;;;22.09;45.83;100325.59;4943485;28;6986;-75
2023/06/10 01:39:11;;;;;;;;;;;;;;;22.08;45.94;100315.16;4945781;28;7209;-75
2023/06/10 01:41:39;;;;;;;;;;;;;;;22.08;46.07;100321.25;4950866;28;7025;-75
2023/06/10 01:44:05;;;;;;;;;;;;;;;22.09;46.15;100325.59;4930453;28;6820;-75
2023/06/10 01:46:30;;;;;;;;;;;;;;;22.11;46.42;100322.97;4937435;28;7380;-75
2023/06/10 01:48:56;;;;;;;;;;;;;;;22.13;46.20;100321.25;4945046;28;6784;-75
2023/06/10 01:51:22;;;;;;;;;;;;;;;22.16;46.28;100321.25;4946057;28;7018;-74
2023/06/10 01:53:47;;;;;;;;;;;;;;;22.18;45.95;100316.88;4951902;28;7055;-74
2023/06/10 01:56:19;;;;;;;;;;;;;;;22.17;46.07;100328.19;4931110;28;7124;-74
2023/06/10 01:58:45;;;;;;;;;;;;;;;22.15;45.93;100328.19;4937460;28;6816;-75
2023/06/10 02:01:11;;;;;;;;;;;;;;;22.12;46.01;100330.81;4952535;28;6804;-75
2023/06/10 02:03:37;;;;;;;;;;;;;;;22.09;46.14;100330.81;4945289;28;7331;-74
2023/06/10 02:06:03;;;;;;;;;;;;;;;22.06;46.31;100329.06;4944845;28;6927;-74
2023/06/10 02:08:28;;;;;;;;;;;;;;;22.04;46.42;100325.59;4947512;28;6963;-74
2023/06/10 02:10:54;;;;;;;;;;;;;;;22.03;46.22;100329.09;4951516;28;6867;-75
2023/06/10 02:13:20;;;;;;;;;;;;;;;22.02;46.41;100329.97;4951828;28;6776;-74
2023/06/10 02:15:45;;;;;;;;;;;;;;;22.01;46.39;100328.19;4937762;28;7082;-75
2023/06/10 02:18:12;;;;;;;;;;;;;;;21.99;46.32;100329.09;4949405;28;6788;-74
2023/06/10 02:20:38;;;;;;;;;;;;;;;21.97;46.43;100336.91;4934364;28;7107;-74
2023/06/10 02:23:04;;;;;;;;;;;;;;;21.95;46.45;100328.22;4954329;28;6851;-75
2023/06/10 02:25:29;;;;;;;;;;;;;;;21.95;46.52;100333.44;4939452;28;7123;-73
2023/06/10 02:27:55;;;;;;;;;;;;;;;21.94;46.73;100331.69;4936478;28;7027;-73
2023/06/10 02:30:21;;;;;;;;;;;;;;;21.96;46.54;100331.69;4939537;28;7340;-74
2023/06/10 02:32:47;;;;;;;;;;;;;;;21.97;46.84;100328.19;4950474;28;7090;-74
2023/06/10 02:35:14;;;;;;;;;;;;;;;21.98;46.49;100332.56;4945044;28;6819;-73
2023/06/10 02:37:40;;;;;;;;;;;;;;;21.98;46.85;100335.19;4945010;28;7184;-73
2023/06/10 02:40:08;;;;;;;;;;;;;;;21.97;46.52;100336.91;4931689;28;7125;-72
2023/06/10 02:42:34;;;;;;;;;;;;;;;21.96;46.55;100343.00;4932706;28;6796;-73
2023/06/10 02:45:00;;;;;;;;;;;;;;;21.95;46.66;100345.59;4945303;28;6780;-73
2023/06/10 02:47:26;;;;;;;;;;;;;;;21.93;46.62;100343.00;4950182;28;6788;-74
2023/06/10 02:49:52;;;;;;;;;;;;;;;21.90;46.86;100340.38;4929707;28;6920;-73
2023/06/10 02:52:17;;;;;;;;;;;;;;;21.89;46.94;100341.25;4947348;28;6932;-73
2023/06/10 02:54:43;;;;;;;;;;;;;;;21.87;46.90;100340.38;4945792;28;7313;-73
2023/06/10 02:57:10;;;;;;;;;;;;;;;21.84;47.00;100335.19;4952017;28;7201;-74
2023/06/10 02:59:36;;;;;;;;;;;;;;;21.81;46.91;100330.81;4928007;28;6985;-74
2023/06/10 03:02:01;;;;;;;;;;;;;;;21.78;47.10;100331.69;4952204;28;6776;-73
2023/06/10 03:04:28;;;;;;;;;;;;;;;21.76;47.02;100330.81;4927334;28;6776;-73
2023/06/10 03:06:54;;;;;;;;;;;;;;;21.74;47.18;100329.94;4925453;28;7734;-74
2023/06/10 03:09:20;;;;;;;;;;;;;;;21.73;47.17;100338.66;4948654;28;7301;-73
2023/06/10 03:11:46;;;;;;;;;;;;;;;21.71;47.31;100342.13;4945700;28;8202;-73
2023/06/10 03:14:11;;;;;;;;;;;;;;;21.69;47.61;100339.50;4930309;28;7280;-74
2023/06/10 03:16:40;;;;;;;;;;;;;;;21.68;47.30;100335.16;4951271;28;6839;-72
2023/06/10 03:19:07;;;;;;;;;;;;;;;21.67;47.45;100335.09;4919839;28;7325;-74
2023/06/10 03:21:37;;;;;;;;;;;;;;;21.65;47.64;100335.13;4928828;28;7612;-73
2023/06/10 03:24:04;;;;;;;;;;;;;;;21.65;47.83;100335.13;4920915;28;7156;-74
2023/06/10 03:26:29;;;;;;;;;;;;;;;21.66;47.68;100342.09;4942528;28;7082;-73
2023/06/10 03:28:55;;;;;;;;;;;;;;;21.65;47.82;100342.94;4949340;28;6788;-73
2023/06/10 03:31:20;;;;;;;;;;;;;;;21.64;47.74;100352.50;4935972;28;7078;-73
2023/06/10 03:33:46;;;;;;;;;;;;;;;21.62;47.92;100356.84;4945207;28;6783;-73
2023/06/10 03:36:12;;;;;;;;;;;;;;;21.60;48.00;100360.31;4945959;28;7774;-72
2023/06/10 03:38:38;;;;;;;;;;;;;;;21.55;48.08;100365.53;4931767;28;7065;-73
2023/06/10 03:41:03;;;;;;;;;;;;;;;21.51;48.38;100364.63;4936615;28;6958;-73
2023/06/10 03:43:31;;;;;;;;;;;;;;;21.47;48.22;100368.13;4949984;28;7010;-74
2023/06/10 03:45:56;;;;;;;;;;;;;;;21.44;48.34;100360.31;4931000;28;6888;-73
2023/06/10 03:48:22;;;;;;;;;;;;;;;21.43;48.39;100366.34;4934286;28;6968;-72
2023/06/10 03:50:50;;;;;;;;;;;;;;;21.44;48.58;100362.91;4931266;28;6951;-73
2023/06/10 03:53:16;;;;;;;;;;;;;;;21.46;48.40;100366.38;4935507;28;7063;-73
2023/06/10 03:55:42;;;;;;;;;;;;;;;21.51;48.56;100366.41;4949838;28;7508;-73
2023/06/10 03:58:07;;;;;;;;;;;;;;;21.55;48.84;100359.44;4933105;28;7047;-73
2023/06/10 04:00:41;;;;;;;;;;;;;;;21.59;48.68;100363.78;4933764;28;6966;-73
2023/06/10 04:03:09;;;;;;;;;;;;;;;21.63;48.53;100362.91;4941959;28;7389;-73
2023/06/10 04:05:35;;;;;;;;;;;;;;;21.66;48.46;100368.16;4934008;28;6992;-73
2023/06/10 04:08:01;;;;;;;;;;;;;;;21.69;48.42;100360.34;4945119;28;7223;-73
2023/06/10 04:10:27;;;;;;;;;;;;;;;21.73;48.55;100364.72;4944173;28;7029;-74
2023/06/10 04:12:53;;;;;;;;;;;;;;;21.77;48.50;100371.69;4940115;28;7693;-73
2023/06/10 04:15:18;;;;;;;;;;;;;;;21.83;48.54;100364.75;4920927;28;7094;-73
2023/06/10 04:17:44;;;;;;;;;;;;;;;21.96;49.28;100371.69;4938601;28;7018;-73
2023/06/10 04:20:10;;;;;;;;;;;;;;;22.17;49.20;100375.16;4924994;28;6947;-73
2023/06/10 04:22:36;;;;;;;;;;;;;;;22.39;48.97;100375.16;4946038;28;7179;-73
2023/06/10 04:25:02;;;;;;;;;;;;;;;22.67;48.27;100376.00;4941307;28;7383;-74
2023/06/10 04:27:29;;;;;;;;;;;;;;;22.93;48.67;100376.81;4935893;28;6974;-74
2023/06/10 04:29:55;;;;;;;;;;;;;;;23.22;48.50;100381.03;4936472;28;7304;-73
2023/06/10 04:32:21;;;;;;;;;;;;;;;23.46;47.71;100369.63;4945460;28;7225;-73
2023/06/10 04:34:46;;;;;;;;;;;;;;;23.72;47.24;100364.19;4932483;28;7215;-73
2023/06/10 04:37:12;;;;;;;;;;;;;;;23.96;47.09;100372.75;4931788;28;8719;-73
2023/06/10 04:39:38;;;;;;;;;;;;;;;24.19;46.54;100366.50;4932801;28;6780;-72
2023/06/10 04:42:05;;;;;;;;;;;;;;;24.41;46.04;100371.50;4937731;28;6764;-72
2023/06/10 04:44:30;;;;;;;;;;;;;;;24.63;45.74;100364.31;4932203;28;7283;-72
2023/06/10 04:46:56;;;;;;;;;;;;;;;24.85;45.36;100366.69;4931209;28;6965;-72
2023/06/10 04:49:21;;;;;;;;;;;;;;;25.07;45.17;100367.31;4941811;28;7010;-74
2023/06/10 04:51:47;;;;;;;;;;;;;;;25.29;44.80;100358.31;4949438;28;6876;-72
2023/06/10 04:54:13;;;;;;;;;;;;;;;25.54;44.32;100363.22;4934361;28;7030;-72
2023/06/10 04:56:39;;;;;;;;;;;;;;;25.77;44.00;100362.84;4934319;28;6788;-72
2023/06/10 04:59:04;;;;;;;;;;;;;;;25.99;43.36;100370.41;4948427;28;6800;-73
2023/06/10 05:01:30;;;;;;;;;;;;;;;26.15;42.91;100366.59;4933876;28;7164;-73
2023/06/10 05:03:56;;;;;;;;;;;;;;;26.28;42.50;100364.66;4913837;28;6963;-72
2023/06/10 05:06:21;;;;;;;;;;;;;;;26.39;41.93;100372.38;4941468;28;7616;-73
2023/06/10 05:08:47;;;;;;;;;;;;;;;26.49;42.05;100370.41;4929873;28;7062;-72
2023/06/10 05:11:12;;;;;;;;;;;;;;;26.60;41.78;100368.44;4930413;28;6949;-72
2023/06/10 05:13:40;;;;;;;;;;;;;;;26.71;41.80;100360.38;4930606;28;7160;-73
2023/06/10 05:16:06;;;;;;;;;;;;;;;26.87;41.66;100365.31;4930680;28;8740;-72
2023/06/10 05:18:32;;;;;;;;;;;;;;;27.02;41.28;100361.53;4926188;28;7000;-72
2023/06/10 05:20:57;;;;;;;;;;;;;;;27.16;41.08;100369.13;4928514;28;6955;-73
2023/06/10 05:23:23;;;;;;;;;;;;;;;27.27;41.11;100359.25;4952469;28;6784;-72
2023/06/10 05:25:48;;;;;;;;;;;;;;;27.40;40.72;100364.22;4915633;28;6970;-73
2023/06/10 05:28:14;;;;;;;;;;;;;;;27.53;40.72;100364.81;4951590;28;6995;-72
2023/06/10 05:30:40;;;;;;;;;;;;;;;27.65;40.89;100364.53;4935020;28;7009;-73
2023/06/10 05:33:05;;;;;;;;;;;;;;;27.80;40.20;100365.94;4949991;28;7270;-74
2023/06/10 05:35:31;;;;;;;;;;;;;;;27.92;40.19;100370.03;4954207;28;6911;-74
2023/06/10 05:37:57;;;;;;;;;;;;;;;28.04;39.92;100368.88;4938255;28;6933;-72
2023/06/10 05:40:23;;;;;;;;;;;;;;;28.14;39.70;100373.00;4956100;28;6864;-74
2023/06/10 05:42:48;;;;;;;;;;;;;;;28.25;39.98;100370.13;4932663;28;6780;-72
2023/06/10 05:45:14;;;;;;;;;;;;;;;28.37;39.22;100368.91;4950434;28;7239;-74
2023/06/10 05:47:40;;;;;;;;;;;;;;;28.47;39.13;100368.66;4939485;28;7598;-72
2023/06/10 05:50:09;;;;;;;;;;;;;;;28.51;39.14;100375.59;4942110;28;7217;-72
2023/06/10 05:52:36;;;;;;;;;;;;;;;28.48;39.04;100373.91;4944122;28;7291;-72
2023/06/10 05:55:06;;;;;;;;;;;;;;;28.41;39.13;100373.22;4943332;28;7288;-72
2023/06/10 05:57:32;;;;;;;;;;;;;;;28.32;38.63;100380.50;4940552;28;6820;-74
2023/06/10 05:59:57;;;;;;;;;;;;;;;28.21;38.96;100378.16;4925542;28;7262;-73
2023/06/10 06:02:24;;;;;;;;;;;;;;;28.04;39.16;100375.91;4942190;28;6796;-73
2023/06/10 06:04:50;;;;;;;;;;;;;;;27.85;38.90;100378.97;4925186;28;7073;-73
2023/06/10 06:07:16;;;;;;;;;;;;;;;27.66;39.15;100373.31;4924953;28;6809;-73
2023/06/10 06:09:41;;;;;;;;;;;;;;;27.50;39.59;100384.16;4955289;28;6947;-72
2023/06/10 06:12:07;;;;;;;;;;;;;;;27.35;39.63;100381.88;4936807;28;7676;-72
2023/06/10 06:14:41;;;;;;;;;;;;;;;27.23;40.03;100378.59;4950009;28;7067;-72
2023/06/10 06:17:07;;;;;;;;;;;;;;;27.13;39.88;100383.22;4948726;28;6807;-73
2023/06/10 06:19:33;;;;;;;;;;;;;;;27.07;40.46;100382.47;4934455;28;6776;-73
2023/06/10 06:21:59;;;;;;;;;;;;;;;27.00;40.62;100381.75;4935676;28;7837;-73
2023/06/10 06:24:25;;;;;;;;;;;;;;;26.97;40.91;100394.94;4951404;28;6964;-74
2023/06/10 06:26:50;;;;;;;;;;;;;;;26.95;40.74;100392.38;4938799;28;7277;-72
2023/06/10 06:29:16;;;;;;;;;;;;;;;26.97;41.06;100389.69;4938736;28;6776;-72
2023/06/10 06:31:42;;;;;;;;;;;;;;;27.00;41.18;100385.22;4952038;28;6776;-73
2023/06/10 06:34:07;;;;;;;;;;;;;;;27.06;41.20;100391.28;4937653;28;7327;-72
2023/06/10 06:36:33;;;;;;;;;;;;;;;27.09;41.26;100394.72;4939299;28;6800;-74
2023/06/10 06:38:58;;;;;;;;;;;;;;;27.15;41.28;100385.81;4938429;28;6980;-73
2023/06/10 06:41:26;;;;;;;;;;;;;;;27.22;41.11;100392.66;4947951;28;6860;-72
2023/06/10 06:43:54;;;;;;;;;;;;;;;27.28;41.16;100387.28;4953303;28;6804;-72
2023/06/10 06:46:19;;;;;;;;;;;;;;;27.35;40.47;100388.00;4935108;28;7258;-73
2023/06/10 06:48:45;;;;;;;;;;;;;;;27.43;40.90;100390.47;4936271;28;7202;-72
2023/06/10 06:51:11;;;;;;;;;;;;;;;27.51;40.38;100399.03;4941152;28;6799;-71
2023/06/10 06:53:36;;;;;;;;;;;;;;;27.62;40.10;100396.22;4945958;28;6966;-71
2023/06/10 06:56:02;;;;;;;;;;;;;;;27.78;40.29;100406.38;4936040;28;6780;-72
2023/06/10 06:58:28;;;;;;;;;;;;;;;28.03;39.99;100395.25;4919124;28;7255;-72
2023/06/10 07:00:53;;;;;;;;;;;;;;;28.32;39.55;100399.81;4929710;28;7210;-73
2023/06/10 07:03:19;;;;;;;;;;;;;;;28.63;39.44;100412.16;4905164;28;6964;-73
2023/06/10 07:05:45;;;;;;;;;;;;;;;28.96;39.64;100404.22;4942194;28;7070;-73
2023/06/10 07:08:11;;;;;;;;;;;;;;;29.34;39.36;100409.31;4943769;28;6772;-72
2023/06/10 07:10:37;;;;;;;;;;;;;;;29.72;38.30;100406.41;4936009;28;7044;-73
2023/06/10 07:13:03;;;;;;;;;;;;;;;30.07;37.83;100404.41;4929486;28;7397;-72
2023/06/10 07:15:28;;;;;;;;;;;;;;;30.41;37.36;100412.97;4955190;28;6776;-73
2023/06/10 07:17:55;;;;;;;;;;;;;;;30.70;36.84;100403.16;4947966;28;6792;-73
2023/06/10 07:20:20;;;;;;;;;;;;;;;31.04;35.83;100401.06;4935551;28;6973;-72
2023/06/10 07:22:46;;;;;;;;;;;;;;;31.34;35.51;100408.75;4942924;28;6768;-73
2023/06/10 07:25:12;;;;;;;;;;;;;;;31.59;34.89;100398.06;4933273;28;7117;-73
2023/06/10 07:27:37;;;;;;;;;;;;;;;31.90;34.50;100401.28;4938032;28;7191;-73
2023/06/10 07:30:06;;;;;;;;;;;;;;;32.20;33.84;100398.25;4937172;28;7107;-73
2023/06/10 07:32:32;;;;;;;;;;;;;;;32.43;33.63;100393.78;4946452;28;6808;-73
2023/06/10 07:34:58;;;;;;;;;;;;;;;32.63;33.04;100403.50;4949790;28;7011;-73
2023/06/10 07:37:23;;;;;;;;;;;;;;;32.83;32.53;100402.59;4920284;28;7091;-72
2023/06/10 07:39:49;;;;;;;;;;;;;;;33.01;31.91;100401.88;4953324;28;6808;-74
2023/06/10 07:42:14;;;;;;;;;;;;;;;33.19;31.90;100402.78;4934425;28;7255;-72
2023/06/10 07:44:40;;;;;;;;;;;;;;;33.36;31.65;100401.97;4952729;28;6799;-73
2023/06/10 07:47:06;;;;;;;;;;;;;;;33.54;31.08;100400.28;4945152;28;7077;-73
2023/06/10 07:49:31;;;;;;;;;;;;;;;33.68;30.58;100401.38;4936098;28;6986;-73
2023/06/10 07:51:57;;;;;;;;;;;;;;;33.80;30.64;100396.34;4929125;28;7439;-75
2023/06/10 07:54:23;;;;;;;;;;;;;;;33.98;30.48;100398.13;4929864;28;7078;-73
2023/06/10 07:56:49;;;;;;;;;;;;;;;34.12;29.95;100398.34;4924358;28;6962;-74
2023/06/10 07:59:16;;;;;;;;;;;;;;;34.24;29.66;100395.97;4932522;28;6800;-73
2023/06/10 08:01:42;;;;;;;;;;;;;;;34.30;29.26;100398.34;4940860;28;7071;-72
2023/06/10 08:04:08;;;;;;;;;;;;;;;34.32;29.38;100396.44;4950421;28;7209;-73
2023/06/10 08:06:34;;;;;;;;;;;;;;;34.38;28.85;100404.09;4927813;28;6905;-73
2023/06/10 08:09:00;;;;;;;;;;;;;;;34.51;28.80;100403.47;4951519;28;6868;-72
2023/06/10 08:11:28;;;;;;;;;;;;;;;34.67;28.67;100399.09;4924203;28;7893;-74
2023/06/10 08:13:54;;;;;;;;;;;;;;;34.81;28.21;100398.31;4936313;28;7206;-73
2023/06/10 08:16:19;;;;;;;;;;;;;;;34.93;27.94;100396.78;4935958;28;7233;-74
2023/06/10 08:18:45;;;;;;;;;;;;;;;35.09;27.69;100396.00;4949160;28;7611;-73
2023/06/10 08:21:11;;;;;;;;;;;;;;;35.31;28.17;100404.47;4941571;28;7097;-74
2023/06/10 08:23:36;;;;;;;;;;;;;;;35.48;27.64;100388.47;4941711;28;6788;-72
2023/06/10 08:26:02;;;;;;;;;;;;;;;35.59;27.01;100391.44;4952547;28;6981;-73
2023/06/10 08:28:28;;;;;;;;;;;;;;;35.69;26.73;100384.63;4934793;28;6780;-73
2023/06/10 08:30:53;;;;;;;;;;;;;;;35.84;26.65;100380.22;4943605;28;6840;-73
2023/06/10 08:33:19;;;;;;;;;;;;;;;36.00;26.34;100377.47;4928472;28;7295;-72
2023/06/10 08:35:45;;;;;;;;;;;;;;;36.07;26.39;100388.66;4952084;28;7239;-72
2023/06/10 08:38:10;;;;;;;;;;;;;;;36.17;26.21;100388.97;4952550;28;6780;-71
2023/06/10 08:40:37;;;;;;;;;;;;;;;36.38;26.11;100384.13;4945711;28;7912;-71
2023/06/10 08:43:10;;;;;;;;;;;;;;;36.67;25.97;100381.50;4949922;28;6812;-71
2023/06/10 08:45:37;;;;;;;;;;;;;;;36.95;26.02;100390.44;4949805;28;7106;-73
2023/06/10 08:48:06;;;;;;;;;;;;;;;37.22;25.15;100389.66;4944785;28;7119;-71
2023/06/10 08:50:37;;;;;;;;;;;;;;;37.45;24.56;100394.44;4953170;28;7011;-71
2023/06/10 08:53:06;;;;;;;;;;;;;;;37.72;24.49;100397.13;4938819;28;6982;-70
2023/06/10 08:55:37;;;;;;;;;;;;;;;37.99;24.53;100393.53;4954499;28;6796;-70
2023/06/10 08:58:03;;;;;;;;;;;;;;;38.19;23.98;100394.03;4927235;28;7111;-70
2023/06/10 09:00:31;;;;;;;;;;;;;;;38.31;24.03;100393.16;4950895;28;6852;-71
2023/06/10 09:02:58;;;;;;;;;;;;;;;38.35;23.63;100391.13;4935994;28;7363;-72
2023/06/10 09:05:26;;;;;;;;;;;;;;;38.42;23.81;100392.44;4931834;28;6800;-71
2023/06/10 09:07:53;;;;;;;;;;;;;;;38.56;23.64;100391.47;4941541;28;6859;-70
2023/06/10 09:10:19;;;;;;;;;;;;;;;38.60;23.27;100395.66;4933937;28;7218;-70
2023/06/10 09:12:45;;;;;;;;;;;;;;;38.70;23.19;100398.53;4924357;28;6959;-73
2023/06/10 09:15:12;;;;;;;;;;;;;;;38.83;23.13;100387.81;4944779;28;7106;-72
2023/06/10 09:17:40;;;;;;;;;;;;;;;39.04;23.12;100395.28;4954754;28;6816;-71
2023/06/10 09:20:08;;;;;;;;;;;;;;;39.23;22.74;100399.28;4934904;28;7313;-72
2023/06/10 09:22:34;;;;;;;;;;;;;;;39.30;22.89;100389.81;4954407;28;7033;-72
2023/06/10 09:25:12;;;;;;;;;;;;;;;39.44;22.14;100394.16;4936763;28;7054;-71
2023/06/10 09:27:48;;;;;;;;;;;;;;;39.51;22.04;100392.75;4955133;28;6800;-72
2023/06/10 09:30:27;;;;;;;;;;;;;;;39.50;21.73;100385.69;4953632;28;6812;-71
2023/06/10 09:32:58;;;;;;;;;;;;;;;39.48;21.82;100392.13;4954048;28;6848;-70
2023/06/10 09:35:27;;;;;;;;;;;;;;;39.65;22.07;100389.03;4938955;28;7244;-70
2023/06/10 09:37:54;;;;;;;;;;;;;;;39.91;22.04;100382.69;4952384;28;6868;-70
2023/06/10 09:40:20;;;;;;;;;;;;;;;40.16;21.43;100392.34;4934810;28;6970;-70
2023/06/10 09:42:53;;;;;;;;;;;;;;;40.32;21.49;100378.63;4947869;28;6977;-71
2023/06/10 09:45:19;;;;;;;;;;;;;;;40.41;21.34;100387.78;4940195;28;6823;-70
2023/06/10 09:47:47;;;;;;;;;;;;;;;40.43;21.08;100388.50;4933878;28;6836;-72
2023/06/10 09:50:13;;;;;;;;;;;;;;;40.55;21.07;100387.53;4923169;28;6970;-72
2023/06/10 09:52:39;;;;;;;;;;;;;;;40.73;21.06;100388.88;4955132;28;6768;-70
2023/06/10 09:55:07;;;;;;;;;;;;;;;40.88;21.03;100389.50;4920568;28;7114;-71
2023/06/10 09:57:33;;;;;;;;;;;;;;;41.05;20.61;100389.00;4948946;28;6950;-71
2023/06/10 10:00:03;;;;;;;;;;;;;;;41.09;20.64;100385.06;4935784;28;8230;-70
2023/06/10 10:02:29;;;;;;;;;;;;;;;41.02;20.59;100383.84;4942120;28;6804;-70
2023/06/10 10:05:03;;;;;;;;;;;;;;;41.00;20.79;100382.25;4955398;28;6838;-69
2023/06/10 10:07:29;;;;;;;;;;;;;;;40.88;20.89;100381.44;4951823;28;7001;-70
2023/06/10 10:09:54;;;;;;;;;;;;;;;40.76;20.77;100377.88;4951862;28;8335;-72
2023/06/10 10:12:20;;;;;;;;;;;;;;;40.70;20.92;100387.28;4942860;28;7212;-70
2023/06/10 10:14:49;;;;;;;;;;;;;;;40.76;20.97;100378.78;4935449;28;6940;-71
2023/06/10 10:17:16;;;;;;;;;;;;;;;40.78;20.48;100379.50;4934991;28;7325;-72
2023/06/10 10:20:02;;;;;;;;;;;;;;;40.74;20.44;100382.53;4953671;28;7106;-70
2023/06/10 10:22:38;;;;;;;;;;;;;;;40.63;20.41;100378.88;4941505;28;6811;-72
2023/06/10 10:25:36;;;;;;;;;;;;;;;40.60;20.31;100375.59;4936894;28;7241;-70
2023/06/10 10:28:19;;;;;;;;;;;;;;;40.63;20.13;100383.38;4932489;28;7548;-72
2023/06/10 10:30:52;;;;;;;;;;;;;;;40.62;20.41;100373.63;4931449;28;7062;-72
2023/06/10 10:33:36;;;;;;;;;;;;;;;40.72;20.42;100379.97;4948420;28;6812;-71
2023/06/10 10:36:03;;;;;;;;;;;;;;;40.84;20.19;100377.28;4927863;28;7125;-72
2023/06/10 10:38:30;;;;;;;;;;;;;;;40.98;20.38;100376.16;4932825;28;7111;-71
2023/06/10 10:40:59;;;;;;;;;;;;;;;41.15;19.94;100367.56;4919694;28;7047;-71
2023/06/10 10:43:28;;;;;;;;;;;;;;;41.41;19.85;100364.59;4935363;28;6852;-70
2023/06/10 10:46:03;;;;;;;;;;;;;;;41.53;19.55;100360.03;4944231;28;10312;-73
2023/06/10 10:48:40;;;;;;;;;;;;;;;41.41;19.42;100366.41;4941970;28;7171;-73
2023/06/10 10:51:07;;;;;;;;;;;;;;;41.21;19.49;100363.56;4941879;28;6872;-71
2023/06/10 10:53:33;;;;;;;;;;;;;;;41.23;19.98;100364.28;4949950;28;7195;-70
2023/06/10 10:56:14;;;;;;;;;;;;;;;41.44;19.72;100368.88;4949612;28;7157;-71
2023/06/10 10:58:40;;;;;;;;;;;;;;;41.61;19.61;100359.38;4931249;28;7009;-72
2023/06/10 11:01:17;;;;;;;;;;;;;;;41.72;19.31;100369.22;4944168;28;6780;-71
2023/06/10 11:03:46;;;;;;;;;;;;;;;41.75;19.14;100359.06;4934996;28;6808;-71
2023/06/10 11:06:17;;;;;;;;;;;;;;;41.75;18.92;100369.81;4942069;28;7006;-73
2023/06/10 11:08:43;;;;;;;;;;;;;;;41.62;18.96;100367.28;4935754;28;6808;-72
2023/06/10 11:11:27;;;;;;;;;;;;;;;41.45;19.03;100366.03;4945854;28;7153;-71
2023/06/10 11:14:09;;;;;;;;;;;;;;;41.45;19.09;100368.72;4944369;28;6808;-73
2023/06/10 11:16:42;;;;;;;;;;;;;;;41.57;18.81;100355.22;4934315;28;6804;-71
2023/06/10 11:19:09;;;;;;;;;;;;;;;41.67;18.26;100358.84;4949677;28;6983;-74
2023/06/10 11:22:01;;;;;;;;;;;;;;;41.58;18.45;100365.84;4934837;28;6983;-71
2023/06/10 11:24:29;;;;;;;;;;;;;;;41.54;18.51;100361.72;4949650;28;6812;-71
2023/06/10 11:27:14;;;;;;;;;;;;;;;41.45;18.55;100362.50;4943943;28;7089;-72
2023/06/10 11:29:39;;;;;;;;;;;;;;;41.46;18.53;100358.81;4929258;28;7258;-72
2023/06/10 11:32:07;;;;;;;;;;;;;;;41.55;18.78;100355.34;4930866;28;7207;-72
2023/06/10 11:34:33;;;;;;;;;;;;;;;41.69;18.30;100342.59;4940733;28;7271;-72
2023/06/10 11:37:00;;;;;;;;;;;;;;;41.71;17.99;100340.63;4933059;28;6776;-72
2023/06/10 11:39:26;;;;;;;;;;;;;;;41.63;18.32;100339.44;4938865;28;6931;-71
2023/06/10 11:41:52;;;;;;;;;;;;;;;41.60;17.97;100339.66;4916710;28;7107;-72
2023/06/10 11:44:18;;;;;;;;;;;;;;;41.51;17.97;100348.53;4935438;28;6796;-73
2023/06/10 11:46:45;;;;;;;;;;;;;;;41.47;18.33;100344.41;4935975;28;7330;-72
2023/06/10 11:49:11;;;;;;;;;;;;;;;41.48;17.85;100343.41;4943402;28;6868;-70
2023/06/10 11:51:40;;;;;;;;;;;;;;;41.46;17.81;100337.31;4936225;28;7602;-74
2023/06/10 11:54:09;;;;;;;;;;;;;;;41.45;17.64;100341.81;4932077;28;7018;-73
2023/06/10 11:56:35;;;;;;;;;;;;;;;41.46;17.96;100338.16;4918523;28;6986;-71
2023/06/10 11:59:05;;;;;;;;;;;;;;;41.57;17.78;100329.19;4932301;28;6868;-71
2023/06/10 12:01:34;;;;;;;;;;;;;;;41.65;17.83;100325.88;4929931;28;6812;-71
2023/06/10 12:04:12;;;;;;;;;;;;;;;41.69;17.63;100324.63;4953127;28;6816;-69
2023/06/10 12:06:52;;;;;;;;;;;;;;;41.65;18.03;100323.19;4951432;28;6804;-73
2023/06/10 12:09:19;;;;;;;;;;;;;;;41.81;17.92;100325.41;4938654;28;6801;-72
2023/06/10 12:11:52;;;;;;;;;;;;;;;42.01;17.69;100320.13;4950498;28;6968;-72
2023/06/10 12:14:50;;;;;;;;;;;;;;;42.26;17.72;100321.56;4916369;28;7005;-71
2023/06/10 12:17:15;;;;;;;;;;;;;;;42.51;17.39;100323.94;4930394;28;7091;-72
2023/06/10 12:19:41;;;;;;;;;;;;;;;42.69;17.18;100319.59;4932333;28;7203;-72
2023/06/10 12:22:07;;;;;;;;;;;;;;;42.78;16.85;100317.91;4934178;28;6974;-74
2023/06/10 12:24:32;;;;;;;;;;;;;;;42.84;16.63;100316.50;4924475;28;6952;-73
2023/06/10 12:26:58;;;;;;;;;;;;;;;42.83;16.50;100321.00;4929220;28;6781;-73
2023/06/10 12:29:24;;;;;;;;;;;;;;;42.88;16.64;100313.38;4929013;28;6820;-73
2023/06/10 12:32:00;;;;;;;;;;;;;;;43.02;16.78;100309.44;4929089;28;6792;-71
2023/06/10 12:34:40;;;;;;;;;;;;;;;43.24;16.89;100323.63;4949237;28;7318;-71
2023/06/10 12:37:13;;;;;;;;;;;;;;;43.20;16.23;100316.84;4939812;28;7853;-73
2023/06/10 12:39:41;;;;;;;;;;;;;;;43.08;15.98;100317.97;4943054;28;7431;-71
2023/06/10 12:42:09;;;;;;;;;;;;;;;42.88;16.20;100320.59;4949425;28;6863;-71
2023/06/10 12:44:40;;;;;;;;;;;;;;;42.67;15.99;100305.41;4937246;28;6868;-70
2023/06/10 12:47:12;;;;;;;;;;;;;;;42.47;16.32;100307.19;4934985;28;6816;-71
2023/06/10 12:49:38;;;;;;;;;;;;;;;42.35;16.32;100303.72;4953051;28;6808;-71
2023/06/10 12:52:05;;;;;;;;;;;;;;;42.30;16.49;100303.28;4951331;28;6816;-73